Weather History for Faribault, MN

Change the Weather History Date:

Sunday, September 29, 2013

  Actual Average Record
Temperature  
Mean Temperature 58 °F -  
Max Temperature 75 °F 66 °F 84 °F (1983)
Min Temperature 42 °F 43 °F 25 °F (1967)
Degree Days  
Heating Degree Days 6    
Growing Degree Days 8 (Base 50)    
Moisture  
Dew Point 46 °F    
Average Humidity 67    
Maximum Humidity 100    
Minimum Humidity 36    
Precipitation  
Precipitation 0.00 in - - ()
Sea Level Pressure  
Sea Level Pressure 29.93 in    
Wind  
Wind Speed 6 mph (South)    
Max Wind Speed 18 mph    
Max Gust Speed 23 mph    
Visibility 10 miles    
Events      
Averages and records for this station are not official NWS values.
T = Trace of Precipitation, MM = Missing Value Source: NWS Daily Summary

Daily Weather History Graph

Daily Weather History Graph

Search for Another Location

Airport:

Trip Planner

Search our weather history database for the weather conditions in past years. The results will help you decide how hot, cold, wet, or windy it might be!

Date:

Astronomy

Sep. 29, 2013 Rise Set
Actual Time 7:08 AM CDT 6:57 PM CDT
Civil Twilight 6:40 AM CDT 7:26 PM CDT
Nautical Twilight 6:06 AM CDT 7:59 PM CDT
Astronomical Twilight 5:32 AM CDT 8:33 PM CDT
Moon 1:40 AM CDT 4:02 PM CDT
Length of Visible Light 12h 45m
Length of Day
11h 48m
Waning Crescent, 27% of the Moon is Illuminated
Sep 29
Waning Crescent
Oct 4
New
Oct 11
First Quarter
Oct 18
Full
Oct 26
Last Quarter

Hourly Weather History & Observations

Time (CDT) Temp. Windchill Dew Point Humidity Pressure Visibility Wind Dir Wind Speed Gust Speed Precip Events Conditions
12:14 AM 46.4 °F 45.2 °F 46.4 °F 100% 29.97 in 10.0 mi South 3.5 mph - N/A   Clear
12:34 AM 46.4 °F 44.3 °F 44.6 °F 93% 29.97 in 10.0 mi South 4.6 mph - N/A   Clear
12:54 AM 44.6 °F - 44.6 °F 100% 29.98 in 10.0 mi Calm Calm - N/A   Clear
1:14 AM 44.6 °F 43.1 °F 44.6 °F 100% 29.98 in 10.0 mi South 3.5 mph - N/A   Clear
1:34 AM 44.6 °F - 44.6 °F 100% 29.98 in 10.0 mi Calm Calm - N/A   Clear
1:54 AM 44.6 °F 43.1 °F 44.6 °F 100% 29.99 in 10.0 mi South 3.5 mph - N/A   Clear
2:14 AM 44.6 °F 43.1 °F 44.6 °F 100% 29.99 in 10.0 mi South 3.5 mph - N/A   Clear
2:34 AM 46.4 °F 43.5 °F 44.6 °F 93% 29.99 in 10.0 mi South 5.8 mph - N/A   Clear
2:54 AM 46.4 °F 43.5 °F 44.6 °F 93% 29.98 in 10.0 mi South 5.8 mph - N/A   Clear
3:13 AM 46.4 °F 43.5 °F 44.6 °F 93% 29.98 in 10.0 mi South 5.8 mph - N/A   Clear
3:34 AM 44.6 °F 43.1 °F 42.8 °F 93% 29.98 in 10.0 mi South 3.5 mph - N/A   Clear
3:54 AM 44.6 °F 42.2 °F 42.8 °F 93% 29.97 in 10.0 mi SSE 4.6 mph - N/A   Clear
4:14 AM 44.6 °F 42.2 °F 42.8 °F 93% 29.97 in 10.0 mi South 4.6 mph - N/A   Clear
4:34 AM 44.6 °F 43.1 °F 42.8 °F 93% 29.98 in 10.0 mi South 3.5 mph - N/A   Clear
4:54 AM 44.6 °F 43.1 °F 42.8 °F 93% 29.98 in 10.0 mi South 3.5 mph - N/A   Clear
5:14 AM 44.6 °F - 42.8 °F 93% 29.98 in 10.0 mi Calm Calm - N/A   Clear
5:34 AM 42.8 °F - 42.8 °F 100% 29.98 in 10.0 mi Calm Calm - N/A   Clear
5:54 AM 42.8 °F - 41.0 °F 93% 29.98 in 10.0 mi Calm Calm - N/A   Clear
6:14 AM 42.8 °F 41.1 °F 41.0 °F 93% 29.98 in 10.0 mi SSE 3.5 mph - N/A   Clear
6:34 AM 42.8 °F 40.1 °F 41.0 °F 93% 29.99 in 10.0 mi SSE 4.6 mph - N/A   Clear
6:54 AM 42.8 °F 40.1 °F 42.8 °F 100% 29.99 in 10.0 mi SSE 4.6 mph - N/A   Clear
7:14 AM 42.8 °F 40.1 °F 42.8 °F 100% 29.99 in 10.0 mi South 4.6 mph - N/A   Clear
7:33 AM 44.6 °F 41.4 °F 42.8 °F 93% 29.99 in 10.0 mi South 5.8 mph - N/A   Clear
7:54 AM 44.6 °F 41.4 °F 42.8 °F 93% 29.99 in 10.0 mi South 5.8 mph - N/A   Clear
8:14 AM 46.4 °F 42.9 °F 42.8 °F 87% 29.99 in 10.0 mi South 6.9 mph - N/A   Clear
8:33 AM 48.2 °F - 44.6 °F 87% 29.99 in 10.0 mi South 5.8 mph - N/A   Clear
8:54 AM 51.8 °F - 44.6 °F 76% 29.99 in 10.0 mi South 6.9 mph - N/A   Clear
9:14 AM 51.8 °F - 46.4 °F 82% 29.99 in 10.0 mi South 5.8 mph - N/A   Clear
9:33 AM 53.6 °F - 46.4 °F 77% 29.99 in 10.0 mi South 5.8 mph - N/A   Clear
9:54 AM 55.4 °F - 48.2 °F 77% 29.99 in 10.0 mi South 6.9 mph - N/A   Clear
10:14 AM 57.2 °F - 48.2 °F 72% 29.99 in 10.0 mi South 6.9 mph - N/A   Clear
10:33 AM 59.0 °F - 48.2 °F 67% 29.99 in 10.0 mi South 5.8 mph - N/A   Clear
10:54 AM 62.6 °F - 48.2 °F 59% 29.98 in 10.0 mi South 8.1 mph - N/A   Clear
11:14 AM 62.6 °F - 48.2 °F 59% 29.98 in 10.0 mi South 9.2 mph - N/A   Clear
11:33 AM 64.4 °F - 48.2 °F 56% 29.97 in 10.0 mi South 6.9 mph - N/A   Clear
11:54 AM 66.2 °F - 48.2 °F 52% 29.97 in 10.0 mi South 8.1 mph - N/A   Clear
12:14 PM 68.0 °F - 48.2 °F 49% 29.96 in 10.0 mi South 9.2 mph - N/A   Clear
12:34 PM 69.8 °F - 48.2 °F 46% 29.95 in 10.0 mi SSE 10.4 mph - N/A   Clear
12:54 PM 71.6 °F - 48.2 °F 43% 29.94 in 10.0 mi SSE 11.5 mph 17.3 mph N/A   Clear
1:14 PM 71.6 °F - 46.4 °F 41% 29.93 in 10.0 mi SSE 10.4 mph - N/A   Clear
1:33 PM 73.4 °F - 46.4 °F 38% 29.92 in 10.0 mi South 8.1 mph 18.4 mph N/A   Clear
1:54 PM 73.4 °F - 46.4 °F 38% 29.90 in 10.0 mi South 12.7 mph 17.3 mph N/A   Clear
2:14 PM 73.4 °F - 44.6 °F 36% 29.89 in 10.0 mi South 16.1 mph - N/A   Clear
2:33 PM 75.2 °F - 46.4 °F 36% 29.89 in 10.0 mi South 11.5 mph 17.3 mph N/A   Clear
2:54 PM 73.4 °F - 46.4 °F 38% 29.88 in 10.0 mi SSE 12.7 mph 20.7 mph N/A   Clear
3:14 PM 73.4 °F - 46.4 °F 38% 29.88 in 10.0 mi SSE 13.8 mph 21.9 mph N/A   Clear
3:33 PM 75.2 °F - 46.4 °F 36% 29.88 in 10.0 mi South 11.5 mph 20.7 mph N/A   Clear
3:54 PM 75.2 °F - 46.4 °F 36% 29.87 in 10.0 mi South 15.0 mph 23.0 mph N/A   Clear
4:14 PM 75.2 °F - 46.4 °F 36% 29.86 in 10.0 mi South 11.5 mph 20.7 mph N/A   Clear
4:33 PM 75.2 °F - 46.4 °F 36% 29.86 in 10.0 mi SSE 18.4 mph 21.9 mph N/A   Clear
4:54 PM 73.4 °F - 46.4 °F 38% 29.85 in 10.0 mi South 12.7 mph 21.9 mph N/A   Clear
5:14 PM 73.4 °F - 46.4 °F 38% 29.85 in 10.0 mi South 15.0 mph 23.0 mph N/A   Clear
5:34 PM 73.4 °F - 46.4 °F 38% 29.84 in 10.0 mi SSE 13.8 mph 21.9 mph N/A   Clear
5:54 PM 73.4 °F - 46.4 °F 38% 29.84 in 10.0 mi SSE 11.5 mph 19.6 mph N/A   Clear
6:14 PM 71.6 °F - 46.4 °F 41% 29.84 in 10.0 mi SSE 12.7 mph - N/A   Clear
6:34 PM 69.8 °F - 46.4 °F 43% 29.84 in 10.0 mi SSE 11.5 mph - N/A   Clear
6:54 PM 68.0 °F - 46.4 °F 46% 29.84 in 10.0 mi SSE 11.5 mph 16.1 mph N/A   Clear
7:14 PM 66.2 °F - 46.4 °F 49% 29.84 in 10.0 mi SSE 11.5 mph - N/A   Clear
7:34 PM 66.2 °F - 46.4 °F 49% 29.84 in 10.0 mi SSE 12.7 mph 17.3 mph N/A   Clear
7:54 PM 66.2 °F - 46.4 °F 49% 29.85 in 10.0 mi SSE 12.7 mph 17.3 mph N/A   Clear
8:14 PM 66.2 °F - 46.4 °F 49% 29.85 in 10.0 mi SSE 9.2 mph - N/A   Clear
8:34 PM 64.4 °F - 46.4 °F 52% 29.85 in 10.0 mi SSE 13.8 mph 19.6 mph N/A   Clear
8:54 PM 64.4 °F - 48.2 °F 56% 29.85 in 10.0 mi SSE 12.7 mph 19.6 mph N/A   Clear
9:14 PM 64.4 °F - 48.2 °F 56% 29.85 in 10.0 mi SSE 13.8 mph 21.9 mph N/A   Clear
9:34 PM 62.6 °F - 48.2 °F 59% 29.85 in 10.0 mi SSE 11.5 mph 17.3 mph N/A   Clear
9:54 PM 62.6 °F - 48.2 °F 59% 29.86 in 10.0 mi South 11.5 mph 17.3 mph N/A   Clear
10:14 PM 62.6 °F - 48.2 °F 59% 29.86 in 10.0 mi South 11.5 mph 17.3 mph N/A   Clear
10:34 PM 60.8 °F - 48.2 °F 63% 29.85 in 10.0 mi South 10.4 mph 17.3 mph N/A   Clear
10:54 PM 60.8 °F - 48.2 °F 63% 29.86 in 10.0 mi South 10.4 mph 16.1 mph N/A   Clear
11:14 PM 59.0 °F - 48.2 °F 67% 29.85 in 10.0 mi South 10.4 mph - N/A   Clear
11:34 PM 57.2 °F - 48.2 °F 72% 29.85 in 10.0 mi South 9.2 mph - N/A   Clear
11:54 PM 57.2 °F - 48.2 °F 72% 29.85 in 10.0 mi South 9.2 mph - N/A   Clear